Time;durP1;ratioP1;P1;durP2;ratioP2;P2;SDS_P1;SDS_P2;PMS_P1;PMS_P2;Temp;Humidity;BMP_temperature;BMP_pressure;BME280_temperature;BME280_humidity;BME280_pressure;Samples;Min_cycle;Max_cycle;Signal;HPM_P1;HPM_P2
2021/12/20 00:00:48;;;;;;;27.67;4.35;;;5.90;99.90;;;;;;4928148;28;20531;-61
2021/12/20 00:03:14;;;;;;;25.90;4.60;;;5.90;99.90;;;;;;4928834;28;20058;-63
2021/12/20 00:05:41;;;;;;;25.50;4.53;;;5.90;99.90;;;;;;4923940;28;20142;-62
2021/12/20 00:08:07;;;;;;;22.85;4.93;;;5.90;99.90;;;;;;4899400;28;20058;-63
2021/12/20 00:10:33;;;;;;;30.02;4.50;;;5.90;99.90;;;;;;4925602;29;20491;-62
2021/12/20 00:12:59;;;;;;;42.00;5.00;;;5.80;99.90;;;;;;4894164;29;20049;-61
2021/12/20 00:15:25;;;;;;;30.70;5.22;;;5.80;99.90;;;;;;4928642;29;20051;-63
2021/12/20 00:17:51;;;;;;;26.67;5.22;;;5.80;99.90;;;;;;4929124;28;20094;-61
2021/12/20 00:20:18;;;;;;;33.08;4.75;;;5.80;99.90;;;;;;4925285;29;20058;-61
2021/12/20 00:22:44;;;;;;;24.63;4.63;;;5.80;99.90;;;;;;4923267;29;20082;-61
2021/12/20 00:25:10;;;;;;;24.77;4.20;;;5.70;99.90;;;;;;4926755;29;20123;-61
2021/12/20 00:27:37;;;;;;;43.65;4.50;;;5.70;99.90;;;;;;4902746;29;20052;-61
2021/12/20 00:30:07;;;;;;;26.08;4.97;;;5.70;99.90;;;;;;4907338;29;20051;-61
2021/12/20 00:32:32;;;;;;;22.85;3.88;;;5.70;99.90;;;;;;4930484;29;20043;-62
2021/12/20 00:34:58;;;;;;;24.77;4.18;;;5.70;99.90;;;;;;4897006;29;20054;-61
2021/12/20 00:40:21;;;;;;;19.67;4.03;;;5.60;99.90;;;;;;4927342;29;20118;-61
2021/12/20 00:43:00;;;;;;;22.27;3.53;;;5.60;99.90;;;;;;4934687;28;20058;-63
2021/12/20 00:45:31;;;;;;;22.60;3.90;;;5.50;99.90;;;;;;4915595;28;20043;-62
2021/12/20 00:47:57;;;;;;;20.92;4.22;;;5.50;99.90;;;;;;4917694;28;20046;-61
2021/12/20 00:50:24;;;;;;;26.27;3.97;;;5.50;99.90;;;;;;4927476;28;20070;-61
2021/12/20 00:52:51;;;;;;;21.85;3.28;;;5.60;99.90;;;;;;4919493;28;20046;-61
2021/12/20 00:55:18;;;;;;;25.13;4.53;;;5.60;99.90;;;;;;4928997;28;20055;-62
2021/12/20 00:57:45;;;;;;;25.80;3.63;;;5.60;99.90;;;;;;4934278;28;20131;-61
2021/12/20 01:00:14;;;;;;;15.63;2.85;;;5.60;99.90;;;;;;4926120;28;20166;-61
2021/12/20 01:02:40;;;;;;;27.77;3.67;;;5.70;99.90;;;;;;4939639;28;20043;-61
2021/12/20 01:05:07;;;;;;;17.52;2.95;;;5.70;99.90;;;;;;4931786;28;20043;-61
2021/12/20 01:07:32;;;;;;;20.38;2.65;;;5.70;99.90;;;;;;4932695;28;20032;-61
2021/12/20 01:10:02;;;;;;;22.48;3.20;;;5.70;99.90;;;;;;4931486;28;20046;-61
2021/12/20 01:12:33;;;;;;;27.08;3.65;;;5.70;99.90;;;;;;4926154;28;20500;-62
2021/12/20 01:15:01;;;;;;;23.67;3.42;;;5.70;99.90;;;;;;4932006;28;20050;-62
2021/12/20 01:17:27;;;;;;;18.77;2.88;;;5.70;99.90;;;;;;4929389;28;20055;-61
2021/12/20 01:19:54;;;;;;;15.50;2.70;;;5.80;99.90;;;;;;4932176;28;20055;-63
2021/12/20 01:22:20;;;;;;;24.77;3.67;;;5.80;99.90;;;;;;4931434;28;20051;-61
2021/12/20 01:24:45;;;;;;;20.55;3.47;;;5.80;99.90;;;;;;4907334;28;20054;-62
2021/12/20 01:27:11;;;;;;;19.58;3.70;;;5.80;99.90;;;;;;4923931;28;20525;-62
2021/12/20 01:29:37;;;;;;;13.75;2.38;;;5.80;99.90;;;;;;4917234;28;20043;-62
2021/12/20 01:32:03;;;;;;;17.23;2.90;;;5.80;99.90;;;;;;4930934;28;20588;-63
2021/12/20 01:34:29;;;;;;;17.67;2.85;;;5.80;99.90;;;;;;4924021;29;20122;-62
2021/12/20 01:36:55;;;;;;;17.98;3.40;;;5.80;99.90;;;;;;4913253;29;20057;-62
2021/12/20 01:39:22;;;;;;;18.55;3.70;;;5.80;99.90;;;;;;4918747;29;20055;-61
2021/12/20 01:41:51;;;;;;;15.18;2.63;;;5.80;99.90;;;;;;4929320;29;20047;-61
2021/12/20 01:44:18;;;;;;;17.83;2.45;;;5.80;99.90;;;;;;4925525;29;20043;-62
2021/12/20 01:46:44;;;;;;;24.30;2.88;;;5.70;99.90;;;;;;4896188;28;20946;-62
2021/12/20 01:49:13;;;;;;;15.40;2.75;;;5.70;99.90;;;;;;4929782;29;20758;-61
2021/12/20 01:54:15;;;;;;;13.27;2.78;;;5.70;99.90;;;;;;4926160;29;20043;-63
2021/12/20 01:56:43;;;;;;;20.00;2.90;;;5.60;99.90;;;;;;4935860;29;20813;-63
2021/12/20 01:59:10;;;;;;;15.10;2.67;;;5.70;99.90;;;;;;4931887;29;20141;-61
2021/12/20 02:01:37;;;;;;;13.73;2.60;;;5.60;99.90;;;;;;4947053;28;20047;-62
2021/12/20 02:04:07;;;;;;;13.60;2.83;;;5.60;99.90;;;;;;4912759;29;20554;-64
2021/12/20 02:06:37;;;;;;;13.60;2.88;;;5.50;99.90;;;;;;4925883;29;20510;-61
2021/12/20 02:09:06;;;;;;;17.42;2.67;;;5.50;99.90;;;;;;4930711;29;20065;-61
2021/12/20 02:11:33;;;;;;;17.85;2.42;;;5.50;99.90;;;;;;4915989;29;20095;-61
2021/12/20 02:13:59;;;;;;;16.27;2.67;;;5.40;99.90;;;;;;4914178;28;20043;-63
2021/12/20 02:16:25;;;;;;;16.38;2.58;;;5.50;99.90;;;;;;4928598;29;20043;-62
2021/12/20 02:18:51;;;;;;;12.70;3.03;;;5.40;99.90;;;;;;4913829;29;20054;-62
2021/12/20 02:21:17;;;;;;;15.55;2.60;;;5.40;99.90;;;;;;4916069;29;20510;-62
2021/12/20 02:23:45;;;;;;;15.00;2.85;;;5.40;99.90;;;;;;4932171;29;20116;-61
2021/12/20 02:26:12;;;;;;;16.35;2.75;;;5.40;99.90;;;;;;4898933;29;20053;-62
2021/12/20 02:28:43;;;;;;;14.73;2.65;;;5.40;99.90;;;;;;4915575;29;20050;-61
2021/12/20 02:38:59;;;;;;;14.90;2.38;;;5.30;99.90;;;;;;4915863;28;20132;-62
2021/12/20 02:41:30;;;;;;;14.95;2.63;;;5.30;99.90;;;;;;4920776;28;20055;-63
2021/12/20 02:44:03;;;;;;;14.02;2.45;;;5.30;99.90;;;;;;4927970;28;20051;-61
2021/12/20 02:49:23;;;;;;;12.98;2.70;;;5.30;99.90;;;;;;4907531;28;20503;-60
2021/12/20 02:51:52;;;;;;;16.42;2.90;;;5.30;99.90;;;;;;4908696;29;20067;-62
2021/12/20 02:54:21;;;;;;;12.98;2.92;;;5.20;99.90;;;;;;4946911;28;20102;-62
2021/12/20 02:56:48;;;;;;;13.13;2.53;;;5.20;99.90;;;;;;4908897;29;20577;-61
2021/12/20 02:59:15;;;;;;;13.05;2.78;;;5.20;99.90;;;;;;4929943;29;20055;-61
2021/12/20 03:01:53;;;;;;;12.73;2.28;;;5.20;99.90;;;;;;4924352;29;20426;-61
2021/12/20 03:04:19;;;;;;;10.30;2.45;;;5.20;99.90;;;;;;4930772;28;20876;-63
2021/12/20 03:06:49;;;;;;;9.68;2.22;;;5.20;99.90;;;;;;4930168;28;20125;-62
2021/12/20 03:09:19;;;;;;;15.90;2.67;;;5.20;99.90;;;;;;4927538;28;20051;-62
2021/12/20 03:11:46;;;;;;;11.90;2.30;;;5.20;99.90;;;;;;4913334;28;20046;-61
2021/12/20 03:14:20;;;;;;;16.17;2.50;;;5.20;99.90;;;;;;4908927;28;20047;-61
2021/12/20 03:16:47;;;;;;;11.07;2.70;;;5.10;99.90;;;;;;4912882;28;20051;-62
2021/12/20 03:19:13;;;;;;;10.48;2.33;;;5.10;99.90;;;;;;4927865;28;20102;-62
2021/12/20 03:21:38;;;;;;;12.35;2.60;;;5.10;99.90;;;;;;4946535;28;20055;-63
2021/12/20 03:24:05;;;;;;;13.48;2.70;;;5.10;99.90;;;;;;4930379;28;20134;-61
2021/12/20 03:26:33;;;;;;;11.23;2.85;;;5.10;99.90;;;;;;4928783;28;20047;-62
2021/12/20 03:29:00;;;;;;;13.52;2.60;;;5.10;99.90;;;;;;4931187;28;20510;-61
2021/12/20 03:31:25;;;;;;;9.18;2.10;;;5.10;99.90;;;;;;4926379;28;20043;-62
2021/12/20 03:33:51;;;;;;;14.45;3.08;;;5.00;99.90;;;;;;4927333;28;20053;-63
2021/12/20 03:36:17;;;;;;;17.65;2.97;;;5.10;99.90;;;;;;4912803;29;20047;-62
2021/12/20 03:38:43;;;;;;;9.82;2.88;;;5.10;99.90;;;;;;4914991;29;20051;-63
2021/12/20 03:41:09;;;;;;;12.43;2.53;;;5.10;99.90;;;;;;4910972;28;20050;-62
2021/12/20 03:43:35;;;;;;;13.88;2.88;;;5.10;99.90;;;;;;4898284;29;20822;-62
2021/12/20 03:46:02;;;;;;;12.90;2.22;;;5.00;99.90;;;;;;4929537;29;20146;-62
2021/12/20 03:48:28;;;;;;;12.50;2.30;;;5.10;99.90;;;;;;4927907;29;20043;-62
2021/12/20 03:50:56;;;;;;;14.93;2.60;;;5.00;99.90;;;;;;4917163;29;20043;-63
2021/12/20 03:53:22;;;;;;;12.32;2.50;;;5.00;99.90;;;;;;4909319;29;20043;-63
2021/12/20 03:55:48;;;;;;;13.55;2.33;;;5.00;99.90;;;;;;4924468;29;20662;-63
2021/12/20 03:58:14;;;;;;;16.45;2.78;;;5.00;99.90;;;;;;4947268;28;20122;-61
2021/12/20 04:00:40;;;;;;;13.68;2.38;;;5.00;99.90;;;;;;4915429;29;20070;-62
2021/12/20 04:03:11;;;;;;;9.70;1.83;;;5.00;99.90;;;;;;4929829;29;20051;-61
2021/12/20 04:05:37;;;;;;;14.57;2.50;;;5.00;99.90;;;;;;4909062;29;20150;-61
2021/12/20 04:08:03;;;;;;;7.85;2.00;;;5.00;99.90;;;;;;4922388;29;20522;-61
2021/12/20 04:10:29;;;;;;;12.43;2.42;;;5.00;99.90;;;;;;4907937;29;20055;-61
2021/12/20 04:12:55;;;;;;;9.98;1.92;;;4.90;99.90;;;;;;4907321;28;20051;-62
2021/12/20 04:15:21;;;;;;;12.18;2.50;;;5.00;99.90;;;;;;4905904;28;20085;-62
2021/12/20 04:17:46;;;;;;;8.57;2.35;;;4.90;99.90;;;;;;4911039;28;20047;-61
2021/12/20 04:20:13;;;;;;;9.52;1.83;;;4.90;99.90;;;;;;4895085;28;20082;-63
2021/12/20 04:22:38;;;;;;;9.52;2.05;;;4.80;99.90;;;;;;4929629;28;20050;-62
2021/12/20 04:25:05;;;;;;;13.93;2.40;;;4.80;99.90;;;;;;4910779;28;20057;-62
2021/12/20 04:27:31;;;;;;;11.98;2.35;;;4.80;99.90;;;;;;4927917;28;20039;-63
2021/12/20 04:29:57;;;;;;;8.90;1.85;;;4.80;99.90;;;;;;4929906;28;20047;-61
2021/12/20 04:32:23;;;;;;;12.15;2.33;;;4.70;99.90;;;;;;4909390;28;20110;-61
2021/12/20 04:34:49;;;;;;;12.60;2.28;;;4.70;99.90;;;;;;4922809;28;20055;-61
2021/12/20 04:37:15;;;;;;;17.10;2.33;;;4.60;99.90;;;;;;4912877;28;20098;-61
2021/12/20 04:39:41;;;;;;;18.38;3.00;;;4.60;99.90;;;;;;4924396;28;20051;-63
2021/12/20 04:42:11;;;;;;;11.43;2.22;;;4.50;99.90;;;;;;4908358;29;20054;-63
2021/12/20 04:44:37;;;;;;;16.88;2.70;;;4.50;99.90;;;;;;4924146;28;20593;-62
2021/12/20 04:47:03;;;;;;;12.48;2.50;;;4.50;99.90;;;;;;4913077;29;20055;-62
2021/12/20 04:49:29;;;;;;;19.75;3.20;;;4.40;99.90;;;;;;4929436;29;20415;-61
2021/12/20 04:51:55;;;;;;;14.02;2.70;;;4.40;99.90;;;;;;4925206;29;20391;-61
2021/12/20 04:54:21;;;;;;;11.00;2.70;;;4.40;99.90;;;;;;4922767;29;20052;-63
2021/12/20 04:56:48;;;;;;;22.20;3.30;;;4.30;99.90;;;;;;4928038;29;20063;-62
2021/12/20 04:59:14;;;;;;;15.30;2.58;;;4.30;99.90;;;;;;4928486;29;20941;-62
2021/12/20 05:01:39;;;;;;;14.05;2.58;;;4.20;99.90;;;;;;4909475;28;20047;-62
2021/12/20 05:04:05;;;;;;;13.85;3.15;;;4.20;99.90;;;;;;4919986;29;20172;-62
2021/12/20 05:06:33;;;;;;;18.25;2.97;;;4.10;99.90;;;;;;4922069;28;20101;-62
2021/12/20 05:09:00;;;;;;;15.73;2.63;;;4.10;99.90;;;;;;4908379;29;20514;-62
2021/12/20 05:11:29;;;;;;;14.13;2.80;;;4.10;99.90;;;;;;4940091;28;20047;-61
2021/12/20 05:13:54;;;;;;;13.23;2.55;;;4.00;99.90;;;;;;4906694;29;20058;-62
2021/12/20 05:16:21;;;;;;;9.70;1.95;;;4.00;99.90;;;;;;4912438;29;20043;-63
2021/12/20 05:18:47;;;;;;;8.55;1.90;;;3.90;99.90;;;;;;4913313;29;20047;-63
2021/12/20 05:21:13;;;;;;;10.93;2.28;;;3.80;99.90;;;;;;4906856;28;20055;-61
2021/12/20 05:23:39;;;;;;;14.10;2.40;;;3.80;99.90;;;;;;4921356;28;20109;-63
2021/12/20 05:26:05;;;;;;;13.35;2.55;;;3.70;99.90;;;;;;4925195;28;20055;-62
2021/12/20 05:28:31;;;;;;;11.02;2.22;;;3.70;99.90;;;;;;4915662;28;20053;-62
2021/12/20 05:30:57;;;;;;;20.25;2.67;;;3.70;99.90;;;;;;4912541;28;20047;-63
2021/12/20 05:33:23;;;;;;;10.65;2.08;;;3.70;99.90;;;;;;4911247;28;20054;-62
2021/12/20 05:35:50;;;;;;;13.55;2.78;;;3.60;99.90;;;;;;4945019;28;20114;-62
2021/12/20 05:38:16;;;;;;;18.83;2.92;;;3.60;99.90;;;;;;4948531;28;20043;-61
2021/12/20 05:40:42;;;;;;;9.30;2.28;;;3.60;99.90;;;;;;4927474;28;20047;-62
2021/12/20 05:43:08;;;;;;;10.73;2.72;;;3.60;99.90;;;;;;4934193;28;20107;-62
2021/12/20 05:45:34;;;;;;;14.77;2.63;;;3.50;99.90;;;;;;4924990;28;20058;-61
2021/12/20 05:48:02;;;;;;;13.25;2.67;;;3.40;99.90;;;;;;4931668;28;20043;-62
2021/12/20 05:50:28;;;;;;;11.10;2.40;;;3.50;99.90;;;;;;4930821;28;20074;-62
2021/12/20 05:52:54;;;;;;;15.57;2.72;;;3.40;99.90;;;;;;4949233;28;20585;-62
2021/12/20 05:55:19;;;;;;;10.27;2.28;;;3.40;99.90;;;;;;4927190;29;20122;-61
2021/12/20 05:57:47;;;;;;;16.13;2.92;;;3.40;99.90;;;;;;4914202;28;20651;-62
2021/12/20 06:00:19;;;;;;;9.27;2.60;;;3.30;99.90;;;;;;4931030;29;20545;-62
2021/12/20 06:02:47;;;;;;;12.55;2.28;;;3.30;99.90;;;;;;4930963;29;20600;-61
2021/12/20 06:05:14;;;;;;;17.60;2.97;;;3.30;99.90;;;;;;4943038;28;20688;-62
2021/12/20 06:07:42;;;;;;;9.90;2.70;;;3.20;99.90;;;;;;4920816;29;20069;-62
2021/12/20 06:10:12;;;;;;;12.23;2.78;;;3.20;99.90;;;;;;4927815;29;20047;-61
2021/12/20 06:12:39;;;;;;;10.50;2.78;;;3.10;99.90;;;;;;4925472;29;20061;-62
2021/12/20 06:15:06;;;;;;;14.10;2.72;;;3.10;99.90;;;;;;4945358;28;20055;-63
2021/12/20 06:17:32;;;;;;;9.25;2.28;;;3.10;99.90;;;;;;4911680;29;20051;-62
2021/12/20 06:19:58;;;;;;;17.40;3.08;;;3.00;99.90;;;;;;4916249;29;20058;-62
2021/12/20 06:22:24;;;;;;;16.23;2.80;;;3.00;99.90;;;;;;4916718;29;20047;-63
2021/12/20 06:24:50;;;;;;;16.55;2.80;;;3.00;99.90;;;;;;4920768;29;20141;-62
2021/12/20 06:27:15;;;;;;;16.70;2.67;;;3.00;99.90;;;;;;4899561;29;20047;-62
2021/12/20 06:29:41;;;;;;;11.63;2.85;;;2.90;99.90;;;;;;4914368;29;20051;-62
2021/12/20 06:32:07;;;;;;;11.75;2.15;;;2.90;99.90;;;;;;4946014;28;20047;-63
2021/12/20 06:34:33;;;;;;;11.85;2.80;;;2.80;99.90;;;;;;4908547;29;20126;-63
2021/12/20 06:36:59;;;;;;;14.77;2.75;;;2.80;99.90;;;;;;4925163;29;20050;-63
2021/12/20 06:39:25;;;;;;;8.63;2.55;;;2.80;99.90;;;;;;4897001;29;20055;-63
2021/12/20 06:41:51;;;;;;;23.05;3.17;;;2.70;99.90;;;;;;4929734;28;20157;-61
2021/12/20 06:44:18;;;;;;;7.85;2.42;;;2.70;99.90;;;;;;4912670;28;20051;-61
2021/12/20 06:46:44;;;;;;;19.83;3.33;;;2.70;99.90;;;;;;4924974;28;20062;-62
2021/12/20 06:49:11;;;;;;;13.38;2.30;;;2.70;99.90;;;;;;4913053;28;20057;-63
2021/12/20 06:51:42;;;;;;;9.85;2.45;;;2.60;99.90;;;;;;4911806;28;20079;-62
2021/12/20 06:54:14;;;;;;;12.40;2.47;;;2.60;99.90;;;;;;4911938;28;20433;-62
2021/12/20 06:56:40;;;;;;;11.57;2.58;;;2.60;99.90;;;;;;4908563;28;20553;-62
2021/12/20 06:59:06;;;;;;;9.15;2.67;;;2.50;99.90;;;;;;4928135;28;20721;-62
2021/12/20 07:01:32;;;;;;;12.70;2.58;;;2.50;99.90;;;;;;4910499;28;20046;-62
2021/12/20 07:03:58;;;;;;;8.38;2.30;;;2.50;99.90;;;;;;4923515;28;20051;-63
2021/12/20 07:06:24;;;;;;;14.18;3.08;;;2.40;99.90;;;;;;4924376;28;20075;-63
2021/12/20 07:08:50;;;;;;;16.52;2.85;;;2.40;99.90;;;;;;4917874;28;20393;-61
2021/12/20 07:11:16;;;;;;;11.35;2.75;;;2.50;99.90;;;;;;4924638;28;20047;-61
2021/12/20 07:13:42;;;;;;;15.40;2.50;;;2.40;99.90;;;;;;4917064;28;20058;-61
2021/12/20 07:16:08;;;;;;;13.13;2.60;;;2.40;99.90;;;;;;4925081;28;20047;-62
2021/12/20 07:18:35;;;;;;;13.77;2.95;;;2.30;99.90;;;;;;4915755;28;20043;-62
2021/12/20 07:21:01;;;;;;;14.43;2.95;;;2.30;99.90;;;;;;4927298;28;20491;-62
2021/12/20 07:23:27;;;;;;;9.25;2.40;;;2.20;99.90;;;;;;4910103;28;20483;-61
2021/12/20 07:25:53;;;;;;;9.43;2.55;;;2.20;99.90;;;;;;4882086;28;20051;-62
2021/12/20 07:28:19;;;;;;;13.02;2.92;;;2.20;99.90;;;;;;4932411;29;20058;-62
2021/12/20 07:30:46;;;;;;;18.33;2.92;;;2.20;99.90;;;;;;4915335;29;20154;-61
2021/12/20 07:33:14;;;;;;;9.88;2.53;;;2.10;99.90;;;;;;4947262;28;20043;-61
2021/12/20 07:35:41;;;;;;;11.90;2.60;;;2.10;99.90;;;;;;4925858;29;20546;-62
2021/12/20 07:38:11;;;;;;;12.35;2.97;;;2.10;99.90;;;;;;4896829;29;20188;-62
2021/12/20 07:40:37;;;;;;;12.15;2.53;;;2.00;99.90;;;;;;4924261;29;20058;-61
2021/12/20 07:43:03;;;;;;;17.90;2.90;;;2.00;99.90;;;;;;4908702;29;20090;-62
2021/12/20 07:45:29;;;;;;;11.88;2.95;;;2.00;99.90;;;;;;4923710;29;20078;-62
2021/12/20 07:47:55;;;;;;;14.60;3.15;;;2.00;99.90;;;;;;4905878;29;20054;-61
2021/12/20 07:50:22;;;;;;;14.00;2.95;;;1.90;99.90;;;;;;4927033;29;20491;-61
2021/12/20 07:52:48;;;;;;;14.15;3.80;;;1.90;99.90;;;;;;4921033;29;20073;-62
2021/12/20 07:55:15;;;;;;;16.05;3.65;;;1.90;99.90;;;;;;4925004;29;20545;-62
2021/12/20 07:57:41;;;;;;;14.45;3.08;;;1.90;99.90;;;;;;4923280;28;20062;-62
2021/12/20 08:00:09;;;;;;;16.73;2.88;;;1.90;99.90;;;;;;4919157;28;20134;-64
2021/12/20 08:02:35;;;;;;;16.58;3.13;;;1.90;99.90;;;;;;4924599;29;20146;-61
2021/12/20 08:05:00;;;;;;;14.95;3.42;;;1.80;99.90;;;;;;4922340;29;20051;-61
2021/12/20 08:07:26;;;;;;;18.20;3.63;;;1.90;99.90;;;;;;4899116;28;20410;-61
2021/12/20 08:09:52;;;;;;;17.15;3.35;;;1.80;99.90;;;;;;4881879;28;20043;-64
2021/12/20 08:12:18;;;;;;;16.10;3.63;;;1.80;99.90;;;;;;4927484;28;20070;-61
2021/12/20 08:14:44;;;;;;;11.23;3.22;;;1.80;99.90;;;;;;4908745;28;20134;-63
2021/12/20 08:17:10;;;;;;;12.20;3.13;;;1.80;99.90;;;;;;4909671;28;20047;-61
2021/12/20 08:19:36;;;;;;;12.65;3.50;;;1.80;99.90;;;;;;4925829;28;20051;-63
2021/12/20 08:22:03;;;;;;;14.40;3.28;;;1.80;99.90;;;;;;4883505;28;20133;-62
2021/12/20 08:24:29;;;;;;;22.88;3.45;;;1.80;99.90;;;;;;4914100;28;20545;-62
2021/12/20 08:26:54;;;;;;;13.30;2.83;;;1.80;99.90;;;;;;4924315;28;20059;-62
2021/12/20 08:29:23;;;;;;;18.80;3.67;;;1.80;99.90;;;;;;4927817;28;20046;-62
2021/12/20 08:31:50;;;;;;;13.60;3.13;;;1.80;99.90;;;;;;4914373;28;20526;-63
2021/12/20 08:34:17;;;;;;;13.75;3.30;;;1.80;99.90;;;;;;4926242;28;20630;-62
2021/12/20 08:36:43;;;;;;;14.48;3.30;;;1.80;99.90;;;;;;4921772;28;20825;-62
2021/12/20 08:39:09;;;;;;;11.38;3.05;;;1.80;99.90;;;;;;4925466;28;20054;-62
2021/12/20 08:41:35;;;;;;;12.95;3.75;;;1.70;99.90;;;;;;4926774;29;20062;-63
2021/12/20 08:44:00;;;;;;;11.98;3.13;;;1.70;99.90;;;;;;4926797;29;20055;-61
2021/12/20 08:46:26;;;;;;;15.10;3.10;;;1.70;99.90;;;;;;4926509;29;20487;-62
2021/12/20 08:48:56;;;;;;;14.52;3.38;;;1.70;99.90;;;;;;4942713;28;20046;-63
2021/12/20 08:51:25;;;;;;;20.48;3.70;;;1.70;99.90;;;;;;4908483;29;20070;-61
2021/12/20 08:53:51;;;;;;;19.33;3.42;;;1.70;99.90;;;;;;4927956;28;20031;-61
2021/12/20 08:56:18;;;;;;;18.33;4.20;;;1.70;99.90;;;;;;4912632;29;20047;-62
2021/12/20 08:58:45;;;;;;;18.63;4.22;;;1.70;99.90;;;;;;4924385;28;20510;-62
2021/12/20 09:01:12;;;;;;;17.80;3.80;;;1.70;99.90;;;;;;4912986;29;20510;-61
2021/12/20 09:03:39;;;;;;;20.67;4.07;;;1.70;99.90;;;;;;4928578;29;20134;-63
2021/12/20 09:06:05;;;;;;;20.40;4.97;;;1.80;99.90;;;;;;4949164;28;20055;-61
2021/12/20 09:08:33;;;;;;;14.80;3.85;;;1.80;99.90;;;;;;4933767;29;20040;-61
2021/12/20 09:10:59;;;;;;;18.30;5.03;;;1.80;99.90;;;;;;4922967;29;20051;-62
2021/12/20 09:13:25;;;;;;;22.98;4.45;;;1.80;99.90;;;;;;4931979;29;20102;-61
2021/12/20 09:15:51;;;;;;;23.50;4.78;;;1.80;99.90;;;;;;4925102;29;20055;-61
2021/12/20 09:18:17;;;;;;;21.13;4.95;;;1.90;99.90;;;;;;4931296;29;20134;-63
2021/12/20 09:20:43;;;;;;;16.75;4.28;;;1.90;99.90;;;;;;4920335;29;20142;-63
2021/12/20 09:23:11;;;;;;;18.55;5.00;;;1.90;99.90;;;;;;4917845;28;20054;-61
2021/12/20 09:25:41;;;;;;;17.23;4.90;;;1.90;99.90;;;;;;4927158;28;20621;-61
2021/12/20 09:28:10;;;;;;;20.75;5.82;;;1.90;99.90;;;;;;4933840;29;20050;-61
2021/12/20 09:30:38;;;;;;;27.10;5.72;;;1.90;99.90;;;;;;4911211;29;20873;-61
2021/12/20 09:33:04;;;;;;;15.95;4.70;;;1.90;99.90;;;;;;4930325;29;20138;-62
2021/12/20 09:35:31;;;;;;;15.77;5.07;;;2.00;99.90;;;;;;4926698;29;20081;-63
2021/12/20 09:37:57;;;;;;;20.70;6.18;;;2.00;99.90;;;;;;4950316;28;20077;-61
2021/12/20 09:40:33;;;;;;;20.90;6.78;;;2.10;99.90;;;;;;4932638;28;20051;-61
2021/12/20 09:43:08;;;;;;;32.30;7.05;;;2.10;99.90;;;;;;4926143;29;20043;-61
2021/12/20 09:45:34;;;;;;;28.65;6.97;;;2.20;99.90;;;;;;4926903;28;20055;-60
2021/12/20 09:48:00;;;;;;;37.55;8.35;;;2.30;99.90;;;;;;4908566;29;20078;-61
2021/12/20 09:50:26;;;;;;;32.17;7.70;;;2.40;99.90;;;;;;4915905;29;20537;-62
2021/12/20 09:52:52;;;;;;;26.10;7.30;;;2.40;99.90;;;;;;4928780;29;20152;-62
2021/12/20 09:55:19;;;;;;;26.33;8.25;;;2.50;99.90;;;;;;4928288;29;20059;-62
2021/12/20 09:57:48;;;;;;;27.95;7.72;;;2.60;99.90;;;;;;4920625;29;20055;-60
2021/12/20 10:00:18;;;;;;;32.83;8.77;;;2.70;99.90;;;;;;4926321;29;20047;-61
2021/12/20 10:02:47;;;;;;;29.45;7.90;;;2.80;99.90;;;;;;4914420;29;20077;-62
2021/12/20 10:05:14;;;;;;;31.48;8.05;;;2.90;99.90;;;;;;4928606;29;20134;-60
2021/12/20 10:07:41;;;;;;;26.25;8.43;;;3.00;99.90;;;;;;4912576;29;20621;-62
2021/12/20 10:10:10;;;;;;;31.52;8.45;;;3.10;99.90;;;;;;4941802;28;20047;-61
2021/12/20 10:12:48;;;;;;;29.45;7.45;;;3.20;99.90;;;;;;4928423;29;20110;-60
2021/12/20 10:15:15;;;;;;;27.80;7.10;;;3.40;99.90;;;;;;4929670;29;20085;-61
2021/12/20 10:17:50;;;;;;;33.63;8.43;;;3.50;99.90;;;;;;4915131;29;20070;-60
2021/12/20 10:20:22;;;;;;;36.85;8.23;;;3.70;99.90;;;;;;4925743;29;20134;-60
2021/12/20 10:22:48;;;;;;;34.78;8.43;;;3.80;99.90;;;;;;4945248;28;20094;-61
2021/12/20 10:25:30;;;;;;;41.22;8.20;;;4.00;99.90;;;;;;4927941;29;20149;-60
2021/12/20 10:28:09;;;;;;;38.35;8.43;;;4.20;99.90;;;;;;4926318;28;20523;-61
2021/12/20 10:30:46;;;;;;;37.55;8.43;;;4.30;99.90;;;;;;4914198;28;20043;-61
2021/12/20 10:33:16;;;;;;;33.80;7.50;;;4.50;99.90;;;;;;4922068;29;20043;-62
2021/12/20 10:35:49;;;;;;;42.75;7.78;;;4.70;99.90;;;;;;4926339;29;20557;-60
2021/12/20 10:38:18;;;;;;;33.88;7.72;;;4.80;99.90;;;;;;4926196;29;20118;-61
2021/12/20 10:40:50;;;;;;;30.83;7.65;;;5.00;99.90;;;;;;4912872;29;20738;-60
2021/12/20 10:43:29;;;;;;;31.63;7.90;;;5.20;99.90;;;;;;4927564;29;20055;-61
2021/12/20 10:45:56;;;;;;;35.42;7.95;;;5.30;99.90;;;;;;4924547;28;20318;-61
2021/12/20 10:48:29;;;;;;;31.80;7.25;;;5.40;99.90;;;;;;4929724;28;20047;-63
2021/12/20 10:50:55;;;;;;;34.58;7.00;;;5.50;99.90;;;;;;4925556;28;20521;-60
2021/12/20 10:53:23;;;;;;;28.55;7.15;;;5.70;99.90;;;;;;4918840;28;20047;-60
2021/12/20 10:55:54;;;;;;;42.70;7.45;;;5.80;99.90;;;;;;4931049;28;20494;-59
2021/12/20 10:58:29;;;;;;;31.33;6.53;;;6.00;99.90;;;;;;4920244;29;20419;-60
2021/12/20 11:03:57;;;;;;;30.95;6.93;;;6.20;99.90;;;;;;4916272;29;20047;-60
2021/12/20 11:09:08;;;;;;;33.38;7.05;;;6.50;99.90;;;;;;4903918;29;20054;-61
2021/12/20 11:11:37;;;;;;;28.00;6.28;;;6.60;99.90;;;;;;4937802;29;20043;-61
2021/12/20 11:14:05;;;;;;;38.67;6.95;;;6.70;99.90;;;;;;4936337;29;20063;-61
2021/12/20 11:16:36;;;;;;;35.25;7.50;;;6.80;99.90;;;;;;4934074;29;20051;-61
2021/12/20 11:19:17;;;;;;;33.30;6.97;;;6.80;99.90;;;;;;4936477;29;20063;-60
2021/12/20 11:22:03;;;;;;;36.17;7.25;;;6.80;99.90;;;;;;4918393;29;20083;-61
2021/12/20 11:24:37;;;;;;;33.10;7.07;;;6.70;99.90;;;;;;4917124;29;20059;-61
2021/12/20 11:27:07;;;;;;;37.55;7.75;;;6.70;99.90;;;;;;4916741;29;20051;-60
2021/12/20 11:29:35;;;;;;;32.20;7.13;;;6.60;99.90;;;;;;4920795;29;20363;-61
2021/12/20 11:32:03;;;;;;;33.97;7.28;;;6.60;99.90;;;;;;4916580;29;20051;-61
2021/12/20 11:34:30;;;;;;;34.13;6.22;;;6.50;99.90;;;;;;4917002;29;20054;-60
2021/12/20 11:36:57;;;;;;;34.72;6.88;;;6.50;99.90;;;;;;4917620;29;20043;-62
2021/12/20 11:39:24;;;;;;;34.33;6.45;;;6.50;99.90;;;;;;4916804;29;20158;-61
2021/12/20 11:41:50;;;;;;;33.90;7.03;;;6.40;99.90;;;;;;4906521;29;20071;-61
2021/12/20 11:44:19;;;;;;;32.33;6.72;;;6.50;99.90;;;;;;4920936;29;20082;-60
2021/12/20 11:46:51;;;;;;;21.90;6.07;;;6.40;99.90;;;;;;4916941;29;20082;-62
2021/12/20 11:49:22;;;;;;;30.98;6.82;;;6.30;99.90;;;;;;4918934;29;20111;-66
2021/12/20 11:52:05;;;;;;;26.73;5.50;;;6.30;99.90;;;;;;4918624;29;20130;-67
2021/12/20 11:54:41;;;;;;;;;;;6.30;99.90;;;;;;4905268;29;20081;-68
2021/12/20 11:57:30;;;;;;;31.42;6.60;;;6.20;99.90;;;;;;4906744;29;19930;-68
2021/12/20 11:59:59;;;;;;;31.67;6.47;;;6.20;99.90;;;;;;4923191;28;20096;-68
2021/12/20 12:02:42;;;;;;;32.05;7.03;;;6.10;99.90;;;;;;4912754;28;20079;-68
2021/12/20 12:05:11;;;;;;;31.65;7.95;;;6.10;99.90;;;;;;4911889;28;20563;-67
2021/12/20 12:07:38;;;;;;;30.42;7.15;;;6.10;99.90;;;;;;4927083;28;20127;-68
2021/12/20 12:10:12;;;;;;;30.75;7.45;;;6.10;99.90;;;;;;4927145;28;20055;-67
2021/12/20 12:12:42;;;;;;;35.70;7.70;;;6.00;99.90;;;;;;4891350;28;20055;-67
2021/12/20 12:15:16;;;;;;;34.47;8.70;;;6.10;99.90;;;;;;4922703;28;20047;-67
2021/12/20 12:17:56;;;;;;;32.85;7.78;;;6.00;99.90;;;;;;4934857;28;90795;-67
2021/12/20 12:20:37;;;;;;;40.75;7.80;;;6.00;99.90;;;;;;4930231;28;20038;-67
2021/12/20 12:23:12;;;;;;;37.05;7.38;;;6.00;99.90;;;;;;4909096;28;20038;-67
2021/12/20 12:25:49;;;;;;;40.72;8.20;;;6.00;99.90;;;;;;4920242;28;20141;-65
2021/12/20 12:28:18;;;;;;;36.78;8.98;;;6.00;99.90;;;;;;4913288;28;20126;-63
2021/12/20 12:30:59;;;;;;;33.53;8.57;;;6.00;99.90;;;;;;4946945;28;20126;-63
2021/12/20 12:33:29;;;;;;;31.45;7.32;;;6.00;99.90;;;;;;4945958;28;20053;-64
2021/12/20 12:35:57;;;;;;;29.88;7.57;;;6.00;99.90;;;;;;4933055;28;20139;-63
2021/12/20 12:38:27;;;;;;;33.83;8.48;;;6.00;99.90;;;;;;4952145;28;20062;-63
2021/12/20 12:41:04;;;;;;;27.92;7.30;;;6.00;99.90;;;;;;4947292;28;20078;-63
2021/12/20 12:43:48;;;;;;;33.47;8.02;;;6.00;99.90;;;;;;4952081;28;20553;-63
2021/12/20 12:46:14;;;;;;;30.90;8.07;;;6.10;99.90;;;;;;4933167;28;20055;-63
2021/12/20 12:48:52;;;;;;;25.17;7.70;;;6.10;99.90;;;;;;4953350;28;20039;-63
2021/12/20 12:51:21;;;;;;;25.45;7.13;;;6.10;99.90;;;;;;4942910;28;21879;-64
2021/12/20 12:53:50;;;;;;;27.33;7.13;;;6.10;99.90;;;;;;4930321;28;20166;-63
2021/12/20 12:56:25;;;;;;;30.48;7.28;;;6.20;99.90;;;;;;4950870;28;20842;-63
2021/12/20 12:59:12;;;;;;;26.00;7.50;;;6.20;99.90;;;;;;4949769;28;20086;-63
2021/12/20 13:01:40;;;;;;;27.52;7.47;;;6.40;99.90;;;;;;4949051;28;20490;-64
2021/12/20 13:04:07;;;;;;;28.55;7.07;;;6.40;99.90;;;;;;4935627;28;20545;-64
2021/12/20 13:06:33;;;;;;;23.17;6.80;;;6.60;99.90;;;;;;4945359;28;20055;-63
2021/12/20 13:09:00;;;;;;;29.17;6.63;;;6.70;99.90;;;;;;4938424;28;20040;-63
2021/12/20 13:11:29;;;;;;;21.73;5.85;;;6.80;99.90;;;;;;4937877;28;20050;-63
2021/12/20 13:14:13;;;;;;;23.92;5.80;;;7.00;99.90;;;;;;4904946;28;21770;-63